Time;durP1;ratioP1;P1;durP2;ratioP2;P2;SDS_P1;SDS_P2;PMS_P1;PMS_P2;Temp;Humidity;BMP_temperature;BMP_pressure;BME280_temperature;BME280_humidity;BME280_pressure;Samples;Min_cycle;Max_cycle;Signal;HPM_P1;HPM_P2
2022/10/21 00:00:51;;;;;;;6.2;4.1;;;;;;;;;;;;;
2022/10/21 00:03:16;;;;;;;7.3;4.1;;;;;;;;;;;;;
2022/10/21 00:05:42;;;;;;;6;3.7;;;;;;;;;;;;;
2022/10/21 00:08:07;;;;;;;5;3.6;;;;;;;;;;;;;
2022/10/21 00:10:35;;;;;;;7.2;4;;;;;;;;;;;;;
2022/10/21 00:13:00;;;;;;;6.8;3.6;;;;;;;;;;;;;
2022/10/21 00:16:08;;;;;;;8.6;4;;;;;;;;;;;;;
2022/10/21 00:18:15;;;;;;;4.8;3.5;;;;;;;;;;;;;
2022/10/21 00:20:40;;;;;;;5.7;3.7;;;;;;;;;;;;;
2022/10/21 00:23:07;;;;;;;6.8;3.4;;;;;;;;;;;;;
2022/10/21 00:25:32;;;;;;;6.1;3.4;;;;;;;;;;;;;
2022/10/21 00:27:57;;;;;;;5.4;3.6;;;;;;;;;;;;;
2022/10/21 00:30:22;;;;;;;6;3.6;;;;;;;;;;;;;
2022/10/21 00:32:55;;;;;;;7.2;3.7;;;;;;;;;;;;;
2022/10/21 00:35:37;;;;;;;7;3.6;;;;;;;;;;;;;
2022/10/21 00:38:02;;;;;;;5.3;3.4;;;;;;;;;;;;;
2022/10/21 00:40:27;;;;;;;4.7;3.2;;;;;;;;;;;;;
2022/10/21 00:42:53;;;;;;;8.3;3.8;;;;;;;;;;;;;
2022/10/21 00:45:19;;;;;;;6.7;3.4;;;;;;;;;;;;;
2022/10/21 00:47:43;;;;;;;5.6;3.3;;;;;;;;;;;;;
2022/10/21 00:50:10;;;;;;;5.8;3.3;;;;;;;;;;;;;
2022/10/21 00:52:35;;;;;;;4;2.9;;;;;;;;;;;;;
2022/10/21 00:55:01;;;;;;;6.3;3.4;;;;;;;;;;;;;
2022/10/21 00:57:26;;;;;;;4.6;3;;;;;;;;;;;;;
2022/10/21 00:59:53;;;;;;;5.6;2.9;;;;;;;;;;;;;
2022/10/21 01:02:18;;;;;;;5.6;3;;;;;;;;;;;;;
2022/10/21 01:04:43;;;;;;;7.7;3.4;;;;;;;;;;;;;
2022/10/21 01:07:09;;;;;;;4.3;2.7;;;;;;;;;;;;;
2022/10/21 01:09:34;;;;;;;5;2.8;;;;;;;;;;;;;
2022/10/21 01:11:59;;;;;;;7.1;2.8;;;;;;;;;;;;;
2022/10/21 01:14:25;;;;;;;5.5;3;;;;;;;;;;;;;
2022/10/21 01:16:51;;;;;;;5;3.1;;;;;;;;;;;;;
2022/10/21 01:19:16;;;;;;;4.1;3.1;;;;;;;;;;;;;
2022/10/21 01:21:41;;;;;;;6.3;3.6;;;;;;;;;;;;;
2022/10/21 01:24:07;;;;;;;4.3;2.9;;;;;;;;;;;;;
2022/10/21 01:26:32;;;;;;;7.4;3;;;;;;;;;;;;;
2022/10/21 01:29:14;;;;;;;7.6;3.1;;;;;;;;;;;;;
2022/10/21 01:31:39;;;;;;;7.1;3.1;;;;;;;;;;;;;
2022/10/21 01:34:04;;;;;;;6.6;2.7;;;;;;;;;;;;;
2022/10/21 01:36:30;;;;;;;3.9;2.5;;;;;;;;;;;;;
2022/10/21 01:39:05;;;;;;;4.7;2.6;;;;;;;;;;;;;
2022/10/21 01:41:30;;;;;;;6.5;2.5;;;;;;;;;;;;;
2022/10/21 01:43:55;;;;;;;5.1;2.8;;;;;;;;;;;;;
2022/10/21 01:46:20;;;;;;;8.3;3.3;;;;;;;;;;;;;
2022/10/21 01:48:45;;;;;;;3.2;2.6;;;;;;;;;;;;;
2022/10/21 01:51:11;;;;;;;7.9;3.1;;;;;;;;;;;;;
2022/10/21 01:53:36;;;;;;;8;3.1;;;;;;;;;;;;;
2022/10/21 01:56:01;;;;;;;6.2;2.7;;;;;;;;;;;;;
2022/10/21 01:58:26;;;;;;;7.1;3.1;;;;;;;;;;;;;
2022/10/21 02:00:51;;;;;;;4.1;2.2;;;;;;;;;;;;;
2022/10/21 02:03:18;;;;;;;6.4;2.9;;;;;;;;;;;;;
2022/10/21 02:05:44;;;;;;;7.6;2.5;;;;;;;;;;;;;
2022/10/21 02:08:09;;;;;;;5.4;2.5;;;;;;;;;;;;;
2022/10/21 02:10:34;;;;;;;6;2.7;;;;;;;;;;;;;
2022/10/21 02:13:00;;;;;;;4.2;2.5;;;;;;;;;;;;;
2022/10/21 02:15:25;;;;;;;5.9;2.4;;;;;;;;;;;;;
2022/10/21 02:20:15;;;;;;;4;2.4;;;;;;;;;;;;;
2022/10/21 02:22:40;;;;;;;6.2;2.2;;;;;;;;;;;;;
2022/10/21 02:25:05;;;;;;;6.1;2.5;;;;;;;;;;;;;
2022/10/21 02:27:30;;;;;;;6.1;2.6;;;;;;;;;;;;;
2022/10/21 02:29:56;;;;;;;5.6;2.6;;;;;;;;;;;;;
2022/10/21 02:32:23;;;;;;;6.3;2.9;;;;;;;;;;;;;
2022/10/21 02:34:48;;;;;;;5.2;2.4;;;;;;;;;;;;;
2022/10/21 02:37:15;;;;;;;5.2;2.7;;;;;;;;;;;;;
2022/10/21 02:39:40;;;;;;;2.8;2.3;;;;;;;;;;;;;
2022/10/21 02:42:06;;;;;;;5.7;2.7;;;;;;;;;;;;;
2022/10/21 02:44:32;;;;;;;6.8;3;;;;;;;;;;;;;
2022/10/21 02:46:57;;;;;;;6.9;2.8;;;;;;;;;;;;;
2022/10/21 02:49:24;;;;;;;8.5;2.9;;;;;;;;;;;;;
2022/10/21 02:51:49;;;;;;;6.2;2.6;;;;;;;;;;;;;
2022/10/21 02:54:15;;;;;;;5.1;2.6;;;;;;;;;;;;;
2022/10/21 02:56:40;;;;;;;4.8;2.5;;;;;;;;;;;;;
2022/10/21 02:59:06;;;;;;;8.3;2.8;;;;;;;;;;;;;
2022/10/21 03:01:31;;;;;;;8;2.8;;;;;;;;;;;;;
2022/10/21 03:03:56;;;;;;;3.1;2.1;;;;;;;;;;;;;
2022/10/21 03:06:22;;;;;;;5.2;2.6;;;;;;;;;;;;;
2022/10/21 03:08:48;;;;;;;6.4;2.5;;;;;;;;;;;;;
2022/10/21 03:11:13;;;;;;;4.7;2.6;;;;;;;;;;;;;
2022/10/21 03:13:39;;;;;;;4.2;2.4;;;;;;;;;;;;;
2022/10/21 03:16:04;;;;;;;3.8;2.2;;;;;;;;;;;;;
2022/10/21 03:18:30;;;;;;;4.7;2.1;;;;;;;;;;;;;
2022/10/21 03:20:55;;;;;;;7.3;2.7;;;;;;;;;;;;;
2022/10/21 03:23:20;;;;;;;7;2.5;;;;;;;;;;;;;
2022/10/21 03:25:46;;;;;;;4;2.1;;;;;;;;;;;;;
2022/10/21 03:28:13;;;;;;;8.6;3.2;;;;;;;;;;;;;
2022/10/21 03:30:38;;;;;;;7.4;2.9;;;;;;;;;;;;;
2022/10/21 03:33:04;;;;;;;9.6;4.5;;;;;;;;;;;;;
2022/10/21 03:35:29;;;;;;;8.6;3.5;;;;;;;;;;;;;
2022/10/21 03:38:04;;;;;;;6.5;3.1;;;;;;;;;;;;;
2022/10/21 03:40:31;;;;;;;6.1;3.1;;;;;;;;;;;;;
2022/10/21 03:42:56;;;;;;;6.5;3.2;;;;;;;;;;;;;
2022/10/21 03:45:21;;;;;;;9.7;3.8;;;;;;;;;;;;;
2022/10/21 03:47:46;;;;;;;11.4;3.6;;;;;;;;;;;;;
2022/10/21 03:50:14;;;;;;;6.6;3.1;;;;;;;;;;;;;
2022/10/21 03:52:40;;;;;;;6.9;3.8;;;;;;;;;;;;;
2022/10/21 03:55:05;;;;;;;8.8;3;;;;;;;;;;;;;
2022/10/21 03:57:30;;;;;;;6.2;2.6;;;;;;;;;;;;;
2022/10/21 03:59:55;;;;;;;7.6;2.9;;;;;;;;;;;;;
2022/10/21 04:02:38;;;;;;;6.7;2.8;;;;;;;13.63;85.49609;935.228;;;;
2022/10/21 04:05:03;;;;;;;5.7;3.2;;;;;;;13.59;85.8916;935.2311;;;;
2022/10/21 04:07:28;;;;;;;6.9;2.8;;;;;;;13.6;85.55957;935.2598;;;;
2022/10/21 04:10:15;;;;;;;7.2;2.7;;;;;;;13.41;86.27148;935.1682;;;;
2022/10/21 04:12:46;;;;;;;9.1;3.2;;;;;;;13.17;87.2666;934.9891;;;;
2022/10/21 04:15:17;;;;;;;6.6;2.8;;;;;;;13.16;87.3125;934.9651;;;;
2022/10/21 04:17:43;;;;;;;4;2.4;;;;;;;13.22;86.92285;934.8535;;;;
2022/10/21 04:20:08;;;;;;;7.8;3;;;;;;;13.25;86.65234;934.9444;;;;
2022/10/21 04:22:34;;;;;;;5.7;3.1;;;;;;;13.11;87.14063;934.9646;;;;
2022/10/21 04:25:05;;;;;;;6.3;3.2;;;;;;;13.07;87.19238;934.9097;;;;
2022/10/21 04:27:36;;;;;;;10.8;3.6;;;;;;;13.15;87.21875;934.9332;;;;
2022/10/21 04:35:49;;;;;;;10;5.2;;;;;;;13.36;85.74316;934.6742;;;;
2022/10/21 04:38:17;;;;;;;10.6;5.4;;;;;;;13.4;86.01465;934.8267;;;;
2022/10/21 04:40:42;;;;;;;11.9;4.7;;;;;;;13.33;85.92188;934.8998;;;;
2022/10/21 04:46:03;;;;;;;11.5;3.8;;;;;;;13.36;85.69727;934.7869;;;;
2022/10/21 04:48:32;;;;;;;7.6;3.9;;;;;;;13.27;86.15039;934.7548;;;;
2022/10/21 04:50:57;;;;;;;7.4;3.8;;;;;;;13.24;85.9043;934.695;;;;
2022/10/21 04:53:27;;;;;;;7.8;2.9;;;;;;;13.19;85.55078;934.6542;;;;
2022/10/21 04:55:57;;;;;;;7.6;3;;;;;;;13.32;85.36621;934.6537;;;;
2022/10/21 04:58:22;;;;;;;6.6;3.4;;;;;;;13.4;85.34766;934.5348;;;;
2022/10/21 05:00:52;;;;;;;8.1;3.1;;;;;;;13.47;85.2832;934.5201;;;;
2022/10/21 05:03:21;;;;;;;8;3.3;;;;;;;13.45;84.59961;934.4906;;;;
2022/10/21 05:05:46;;;;;;;5.7;2.4;;;;;;;13.26;85.5166;934.4662;;;;
2022/10/21 05:08:16;;;;;;;5.8;2.9;;;;;;;13.28;85.88965;934.3981;;;;
2022/10/21 05:10:45;;;;;;;5.9;2.9;;;;;;;13.33;84.97754;934.4105;;;;
2022/10/21 05:13:10;;;;;;;7;3;;;;;;;13.4;84.7959;934.4267;;;;
2022/10/21 05:15:38;;;;;;;4.3;2.5;;;;;;;;;;;;;
2022/10/21 05:18:03;;;;;;;6.3;2.8;;;;;;;;;;;;;
2022/10/21 05:20:30;;;;;;;6.8;2.8;;;;;;;;;;;;;
2022/10/21 05:22:56;;;;;;;7;2.8;;;;;;;;;;;;;
2022/10/21 05:25:21;;;;;;;7.6;3.5;;;;;;;;;;;;;
2022/10/21 05:27:46;;;;;;;8.2;2.8;;;;;;;;;;;;;
2022/10/21 05:30:13;;;;;;;6.6;3;;;;;;;;;;;;;
2022/10/21 05:32:38;;;;;;;6.7;2.9;;;;;;;;;;;;;
2022/10/21 05:35:03;;;;;;;6.7;2.8;;;;;;;;;;;;;
2022/10/21 05:37:28;;;;;;;5.9;2.9;;;;;;;;;;;;;
2022/10/21 05:39:54;;;;;;;7;3.2;;;;;;;;;;;;;
2022/10/21 05:42:19;;;;;;;9.6;3.2;;;;;;;;;;;;;
2022/10/21 05:44:45;;;;;;;5.9;2.6;;;;;;;;;;;;;
2022/10/21 05:47:10;;;;;;;8.2;3.3;;;;;;;;;;;;;
2022/10/21 05:49:35;;;;;;;11.3;3.7;;;;;;;;;;;;;
2022/10/21 05:52:02;;;;;;;8.5;3.8;;;;;;;;;;;;;
2022/10/21 05:54:28;;;;;;;7.3;3.8;;;;;;;;;;;;;
2022/10/21 05:56:53;;;;;;;10.1;4.6;;;;;;;;;;;;;
2022/10/21 05:59:18;;;;;;;10.8;4.4;;;;;;;;;;;;;
2022/10/21 06:01:44;;;;;;;12.1;5.5;;;;;;;;;;;;;
2022/10/21 06:04:09;;;;;;;12.7;5.1;;;;;;;;;;;;;
2022/10/21 06:06:35;;;;;;;9.9;4.8;;;;;;;;;;;;;
2022/10/21 06:09:00;;;;;;;9.2;4.9;;;;;;;;;;;;;
2022/10/21 06:11:25;;;;;;;10.4;4.7;;;;;;;;;;;;;
2022/10/21 06:13:50;;;;;;;10.5;4.5;;;;;;;;;;;;;
2022/10/21 06:16:18;;;;;;;12.8;5.3;;;;;;;;;;;;;
2022/10/21 06:18:43;;;;;;;10.9;5.7;;;;;;;;;;;;;
2022/10/21 06:21:09;;;;;;;10.9;5.3;;;;;;;;;;;;;
2022/10/21 06:23:34;;;;;;;10.8;5;;;;;;;;;;;;;
2022/10/21 06:25:59;;;;;;;9.1;5.1;;;;;;;;;;;;;
2022/10/21 06:28:24;;;;;;;10.5;4.3;;;;;;;;;;;;;
2022/10/21 06:30:50;;;;;;;8;3.5;;;;;;;;;;;;;
2022/10/21 06:33:15;;;;;;;9.6;3.4;;;;;;;;;;;;;
2022/10/21 06:35:40;;;;;;;7.1;3;;;;;;;;;;;;;
2022/10/21 06:38:05;;;;;;;9.3;4.2;;;;;;;;;;;;;
2022/10/21 06:40:30;;;;;;;10.8;3.5;;;;;;;;;;;;;
2022/10/21 06:42:57;;;;;;;10.4;3.4;;;;;;;;;;;;;
2022/10/21 06:45:22;;;;;;;9.7;3.5;;;;;;;;;;;;;
2022/10/21 06:47:50;;;;;;;9.9;3.8;;;;;;;;;;;;;
2022/10/21 06:50:38;;;;;;;12.9;4;;;;;;;;;;;;;
2022/10/21 06:53:05;;;;;;;10.1;4.3;;;;;;;;;;;;;
2022/10/21 06:55:30;;;;;;;12.1;4.7;;;;;;;;;;;;;
2022/10/21 06:57:57;;;;;;;9.3;4.3;;;;;;;;;;;;;
2022/10/21 07:00:22;;;;;;;9.4;3.7;;;;;;;;;;;;;
2022/10/21 07:02:48;;;;;;;10;4;;;;;;;;;;;;;
2022/10/21 07:05:13;;;;;;;8.1;3.6;;;;;;;;;;;;;
2022/10/21 07:07:41;;;;;;;10;3.8;;;;;;;;;;;;;
2022/10/21 07:10:06;;;;;;;8.7;3.8;;;;;;;;;;;;;
2022/10/21 07:12:31;;;;;;;6.7;3.8;;;;;;;;;;;;;
2022/10/21 07:14:56;;;;;;;6.1;3.2;;;;;;;;;;;;;
2022/10/21 07:17:24;;;;;;;8.5;4;;;;;;;;;;;;;
2022/10/21 07:19:49;;;;;;;9.6;3.8;;;;;;;;;;;;;
2022/10/21 07:22:14;;;;;;;7.7;3.4;;;;;;;;;;;;;
2022/10/21 07:24:39;;;;;;;9.2;3.6;;;;;;;;;;;;;
2022/10/21 07:27:05;;;;;;;8.1;3.4;;;;;;;;;;;;;
2022/10/21 07:29:30;;;;;;;8.1;3.3;;;;;;;;;;;;;
2022/10/21 07:31:56;;;;;;;8;3.9;;;;;;;;;;;;;
2022/10/21 07:34:21;;;;;;;11.3;4;;;;;;;;;;;;;
2022/10/21 07:36:51;;;;;;;11.2;3.6;;;;;;;;;;;;;
2022/10/21 07:39:13;;;;;;;9.7;3.4;;;;;;;;;;;;;
2022/10/21 07:41:38;;;;;;;8.1;3;;;;;;;;;;;;;
2022/10/21 07:44:03;;;;;;;10;3.5;;;;;;;;;;;;;
2022/10/21 07:46:30;;;;;;;9.7;3.5;;;;;;;;;;;;;
2022/10/21 07:48:55;;;;;;;13.2;3.2;;;;;;;;;;;;;
2022/10/21 07:51:21;;;;;;;5.5;3.4;;;;;;;;;;;;;
2022/10/21 07:53:46;;;;;;;9.1;4;;;;;;;;;;;;;
2022/10/21 07:56:11;;;;;;;11;4.3;;;;;;;;;;;;;
2022/10/21 07:58:37;;;;;;;11.6;5.3;;;;;;;;;;;;;
2022/10/21 08:01:02;;;;;;;12.5;4.3;;;;;;;;;;;;;
2022/10/21 08:03:30;;;;;;;9.6;4.3;;;;;;;;;;;;;
2022/10/21 08:06:14;;;;;;;9;4.2;;;;;;;;;;;;;
2022/10/21 08:08:41;;;;;;;11.7;5.1;;;;;;;;;;;;;
2022/10/21 08:11:06;;;;;;;11.6;4.3;;;;;;;;;;;;;
2022/10/21 08:13:33;;;;;;;9.5;4.5;;;;;;;;;;;;;
2022/10/21 08:15:58;;;;;;;11.9;4.2;;;;;;;;;;;;;
2022/10/21 08:18:25;;;;;;;8.5;4.6;;;;;;;;;;;;;
2022/10/21 08:20:50;;;;;;;10.9;4.3;;;;;;;;;;;;;
2022/10/21 08:23:15;;;;;;;6.8;3.2;;;;;;;;;;;;;
2022/10/21 08:25:40;;;;;;;9;3.5;;;;;;;;;;;;;
2022/10/21 08:28:05;;;;;;;8;3.6;;;;;;;;;;;;;
2022/10/21 08:30:30;;;;;;;8.6;4.4;;;;;;;;;;;;;
2022/10/21 08:32:58;;;;;;;9;4.4;;;;;;;;;;;;;
2022/10/21 08:35:23;;;;;;;8.4;4.6;;;;;;;;;;;;;
2022/10/21 08:37:48;;;;;;;9.8;4.2;;;;;;;;;;;;;
2022/10/21 08:40:13;;;;;;;8.7;4.2;;;;;;;;;;;;;
2022/10/21 08:42:44;;;;;;;8.6;4.2;;;;;;;;;;;;;
2022/10/21 08:45:07;;;;;;;15.4;4.3;;;;;;;;;;;;;
2022/10/21 08:47:32;;;;;;;12;4.3;;;;;;;;;;;;;
2022/10/21 08:49:58;;;;;;;11;3.6;;;;;;;;;;;;;
2022/10/21 08:52:23;;;;;;;7.5;3.2;;;;;;;;;;;;;
2022/10/21 08:54:49;;;;;;;5.4;3.7;;;;;;;;;;;;;
2022/10/21 08:57:14;;;;;;;9.1;3.4;;;;;;;;;;;;;
2022/10/21 08:59:41;;;;;;;8.9;3.8;;;;;;;;;;;;;
2022/10/21 09:02:05;;;;;;;11.4;3.7;;;;;;;;;;;;;
2022/10/21 09:04:34;;;;;;;5.4;3.1;;;;;;;;;;;;;
2022/10/21 09:06:59;;;;;;;9.6;3.7;;;;;;;;;;;;;
2022/10/21 09:09:25;;;;;;;9.6;4.2;;;;;;;;;;;;;
2022/10/21 09:11:50;;;;;;;13;4.3;;;;;;;;;;;;;
2022/10/21 09:14:15;;;;;;;9.8;4.1;;;;;;;;;;;;;
2022/10/21 09:16:40;;;;;;;11;3.7;;;;;;;;;;;;;
2022/10/21 09:19:06;;;;;;;8;3.1;;;;;;;;;;;;;
2022/10/21 09:21:31;;;;;;;7.7;3;;;;;;;;;;;;;
2022/10/21 09:23:57;;;;;;;9.7;3.6;;;;;;;;;;;;;
2022/10/21 09:26:23;;;;;;;6.9;3.3;;;;;;;;;;;;;
2022/10/21 09:28:48;;;;;;;8.3;2.9;;;;;;;;;;;;;
2022/10/21 09:31:13;;;;;;;7.4;2.7;;;;;;;;;;;;;
2022/10/21 09:33:42;;;;;;;5.5;2.9;;;;;;;;;;;;;
2022/10/21 09:36:07;;;;;;;9.8;2.6;;;;;;;;;;;;;
2022/10/21 09:38:32;;;;;;;8.3;3.1;;;;;;;;;;;;;
2022/10/21 09:40:58;;;;;;;8.5;2.7;;;;;;;;;;;;;
2022/10/21 09:43:23;;;;;;;7.8;3.1;;;;;;;;;;;;;
2022/10/21 09:45:48;;;;;;;8.6;3.1;;;;;;;;;;;;;
2022/10/21 09:48:13;;;;;;;5.5;2.8;;;;;;;;;;;;;
2022/10/21 09:50:41;;;;;;;4.6;3.1;;;;;;;;;;;;;
2022/10/21 09:53:06;;;;;;;6.4;2.9;;;;;;;;;;;;;
2022/10/21 09:55:32;;;;;;;6;2.6;;;;;;;;;;;;;
2022/10/21 09:57:57;;;;;;;5.6;2.9;;;;;;;;;;;;;
2022/10/21 10:00:23;;;;;;;6.9;3;;;;;;;;;;;;;
2022/10/21 10:02:50;;;;;;;26.5;11.1;;;;;;;;;;;;;
2022/10/21 10:05:16;;;;;;;42.3;17.6;;;;;;;;;;;;;
2022/10/21 10:07:42;;;;;;;11.2;5.4;;;;;;;;;;;;;
2022/10/21 10:10:07;;;;;;;20.2;8.5;;;;;;;;;;;;;
2022/10/21 10:12:32;;;;;;;12.7;5.7;;;;;;;;;;;;;
2022/10/21 10:14:58;;;;;;;6.5;3.1;;;;;;;;;;;;;
2022/10/21 10:17:24;;;;;;;26.3;10.7;;;;;;;;;;;;;
2022/10/21 10:19:49;;;;;;;40.9;17.7;;;;;;;;;;;;;
2022/10/21 10:22:14;;;;;;;22.8;10.2;;;;;;;;;;;;;
2022/10/21 10:24:40;;;;;;;18.8;6.6;;;;;;;;;;;;;
2022/10/21 10:27:04;;;;;;;20.3;8.2;;;;;;;;;;;;;
2022/10/21 10:29:30;;;;;;;6.6;3.3;;;;;;;;;;;;;
2022/10/21 10:31:58;;;;;;;11.7;4.1;;;;;;;;;;;;;
2022/10/21 10:34:23;;;;;;;10.5;4;;;;;;;;;;;;;
2022/10/21 10:36:49;;;;;;;10.5;4.7;;;;;;;;;;;;;
2022/10/21 10:39:14;;;;;;;11.8;3.9;;;;;;;;;;;;;
2022/10/21 10:41:39;;;;;;;12.4;3.7;;;;;;;;;;;;;
2022/10/21 10:44:05;;;;;;;9.1;3.1;;;;;;;;;;;;;
2022/10/21 10:46:30;;;;;;;8.9;3.2;;;;;;;;;;;;;
2022/10/21 10:48:55;;;;;;;6.4;2.9;;;;;;;;;;;;;
2022/10/21 10:51:20;;;;;;;6.9;2.5;;;;;;;;;;;;;
2022/10/21 10:53:46;;;;;;;6;2.7;;;;;;;;;;;;;
2022/10/21 10:56:11;;;;;;;7.6;2.5;;;;;;;;;;;;;
2022/10/21 10:58:36;;;;;;;5.1;2.8;;;;;;;;;;;;;
2022/10/21 11:01:02;;;;;;;6.9;2.6;;;;;;;;;;;;;
2022/10/21 11:03:28;;;;;;;4.8;2.2;;;;;;;;;;;;;
2022/10/21 11:05:54;;;;;;;6.1;2.5;;;;;;;;;;;;;
2022/10/21 11:08:19;;;;;;;6.9;2.3;;;;;;;;;;;;;
2022/10/21 11:10:46;;;;;;;7;2.4;;;;;;;;;;;;;
2022/10/21 11:13:11;;;;;;;7.2;2.6;;;;;;;;;;;;;
2022/10/21 11:15:41;;;;;;;8.8;2.4;;;;;;;;;;;;;
2022/10/21 11:18:08;;;;;;;9.3;2.4;;;;;;;;;;;;;
2022/10/21 11:20:33;;;;;;;5.5;2.5;;;;;;;;;;;;;
2022/10/21 11:22:58;;;;;;;6.1;2.2;;;;;;;;;;;;;
2022/10/21 11:25:25;;;;;;;7;2.3;;;;;;;;;;;;;
2022/10/21 11:27:50;;;;;;;5.9;2.4;;;;;;;;;;;;;
2022/10/21 11:30:16;;;;;;;4.3;2;;;;;;;;;;;;;
2022/10/21 11:32:41;;;;;;;4.5;1.8;;;;;;;;;;;;;
2022/10/21 11:35:09;;;;;;;7.9;2.5;;;;;;;;;;;;;
2022/10/21 11:37:43;;;;;;;6.3;2.2;;;;;;;;;;;;;
2022/10/21 11:40:06;;;;;;;3.3;2;;;;;;;;;;;;;
2022/10/21 11:42:32;;;;;;;6.6;2.1;;;;;;;;;;;;;
2022/10/21 11:44:57;;;;;;;7;2;;;;;;;;;;;;;
2022/10/21 11:47:22;;;;;;;4.1;1.9;;;;;;;;;;;;;
2022/10/21 11:50:01;;;;;;;5.5;2.1;;;;;;;;;;;;;
2022/10/21 11:52:26;;;;;;;12.9;4.6;;;;;;;;;;;;;
2022/10/21 11:54:51;;;;;;;6.8;2.3;;;;;;;;;;;;;
2022/10/21 11:57:16;;;;;;;7.1;2.3;;;;;;;;;;;;;
2022/10/21 11:59:41;;;;;;;5.8;2.2;;;;;;;;;;;;;
2022/10/21 12:02:09;;;;;;;6.4;2.7;;;;;;;;;;;;;
2022/10/21 12:04:34;;;;;;;4.1;2.1;;;;;;;;;;;;;
2022/10/21 12:06:59;;;;;;;5.9;2.3;;;;;;;;;;;;;
2022/10/21 12:09:25;;;;;;;5.7;2.2;;;;;;;;;;;;;
2022/10/21 12:11:50;;;;;;;5.6;2.1;;;;;;;;;;;;;
2022/10/21 12:14:15;;;;;;;4.9;2;;;;;;;;;;;;;
2022/10/21 12:16:40;;;;;;;4.3;2;;;;;;;;;;;;;
2022/10/21 12:19:08;;;;;;;6.8;2.1;;;;;;;;;;;;;
2022/10/21 12:21:33;;;;;;;4.3;2.1;;;;;;;;;;;;;
2022/10/21 12:24:01;;;;;;;6.2;2.4;;;;;;;;;;;;;
2022/10/21 12:26:26;;;;;;;6.7;2.6;;;;;;;;;;;;;
2022/10/21 12:28:51;;;;;;;7;2.3;;;;;;;;;;;;;
2022/10/21 12:31:17;;;;;;;6.2;2.2;;;;;;;;;;;;;
2022/10/21 12:33:42;;;;;;;2.6;2;;;;;;;;;;;;;
2022/10/21 12:36:08;;;;;;;4.6;2;;;;;;;;;;;;;
2022/10/21 12:38:33;;;;;;;8;2.4;;;;;;;;;;;;;
2022/10/21 12:40:58;;;;;;;3.7;2.1;;;;;;;;;;;;;
2022/10/21 12:43:26;;;;;;;3.7;2;;;;;;;;;;;;;
2022/10/21 12:45:48;;;;;;;4.9;2.1;;;;;;;;;;;;;
2022/10/21 12:48:13;;;;;;;6.9;2.3;;;;;;;;;;;;;
2022/10/21 12:50:43;;;;;;;6.1;2;;;;;;;;;;;;;
2022/10/21 12:53:09;;;;;;;7.8;2.5;;;;;;;;;;;;;
2022/10/21 12:55:39;;;;;;;7.3;2.2;;;;;;;;;;;;;
2022/10/21 12:58:01;;;;;;;7.7;2.3;;;;;;;;;;;;;
2022/10/21 13:00:26;;;;;;;5.6;2.2;;;;;;;;;;;;;
2022/10/21 13:02:51;;;;;;;3.8;1.7;;;;;;;;;;;;;
2022/10/21 13:05:18;;;;;;;4.8;2.1;;;;;;;;;;;;;
2022/10/21 13:07:43;;;;;;;4.6;1.9;;;;;;;;;;;;;
2022/10/21 13:10:11;;;;;;;5.8;2.1;;;;;;;;;;;;;
2022/10/21 13:12:36;;;;;;;4.4;2;;;;;;;;;;;;;
2022/10/21 13:15:01;;;;;;;2.7;1.5;;;;;;;;;;;;;
2022/10/21 13:17:26;;;;;;;5;2.1;;;;;;;;;;;;;
2022/10/21 13:19:51;;;;;;;7.4;3.7;;;;;;;;;;;;;
2022/10/21 13:22:17;;;;;;;5.7;2;;;;;;;;;;;;;
2022/10/21 13:24:42;;;;;;;4.9;1.7;;;;;;;;;;;;;
2022/10/21 13:27:09;;;;;;;7.8;2.2;;;;;;;;;;;;;
2022/10/21 13:29:35;;;;;;;4.4;2;;;;;;;;;;;;;
2022/10/21 13:32:00;;;;;;;5.5;2.4;;;;;;;;;;;;;
2022/10/21 13:34:25;;;;;;;3.6;1.9;;;;;;;;;;;;;
2022/10/21 13:36:51;;;;;;;5.2;2.2;;;;;;;;;;;;;
2022/10/21 13:39:18;;;;;;;4.1;1.7;;;;;;;;;;;;;
2022/10/21 13:41:43;;;;;;;4.4;2.2;;;;;;;;;;;;;
2022/10/21 13:44:09;;;;;;;5.2;1.8;;;;;;;;;;;;;
2022/10/21 13:46:34;;;;;;;4.9;2.1;;;;;;;;;;;;;
2022/10/21 13:49:00;;;;;;;6.4;2.4;;;;;;;;;;;;;
2022/10/21 13:51:25;;;;;;;3.5;1.9;;;;;;;;;;;;;
2022/10/21 13:53:50;;;;;;;3.4;1.8;;;;;;;;;;;;;
2022/10/21 13:56:15;;;;;;;4.7;2.3;;;;;;;;;;;;;
2022/10/21 13:58:42;;;;;;;5.5;1.9;;;;;;;;;;;;;
2022/10/21 14:01:07;;;;;;;4.2;1.8;;;;;;;;;;;;;
2022/10/21 14:03:33;;;;;;;3.2;1.9;;;;;;;;;;;;;
2022/10/21 14:05:58;;;;;;;4.6;1.6;;;;;;;;;;;;;
2022/10/21 14:08:23;;;;;;;2.4;1.6;;;;;;;;;;;;;
2022/10/21 14:10:48;;;;;;;4.5;2;;;;;;;;;;;;;
2022/10/21 14:13:15;;;;;;;3.5;1.9;;;;;;;;;;;;;
2022/10/21 14:15:39;;;;;;;3.4;1.7;;;;;;;;;;;;;
2022/10/21 14:18:09;;;;;;;4.7;2;;;;;;;;;;;;;
2022/10/21 14:20:34;;;;;;;2.4;1.9;;;;;;;;;;;;;
2022/10/21 14:22:59;;;;;;;5.7;2.2;;;;;;;;;;;;;
2022/10/21 14:25:24;;;;;;;5.1;1.7;;;;;;;;;;;;;
2022/10/21 14:27:52;;;;;;;3.1;1.8;;;;;;;;;;;;;
2022/10/21 14:30:17;;;;;;;3.6;1.7;;;;;;;;;;;;;
2022/10/21 14:32:43;;;;;;;5.2;2.4;;;;;;;;;;;;;
2022/10/21 14:35:07;;;;;;;3.4;1.8;;;;;;;;;;;;;
2022/10/21 14:37:33;;;;;;;4.7;1.8;;;;;;;;;;;;;
2022/10/21 14:39:58;;;;;;;5.2;2.2;;;;;;;;;;;;;
2022/10/21 14:42:23;;;;;;;3.6;2;;;;;;;;;;;;;
2022/10/21 14:44:48;;;;;;;5.1;2.1;;;;;;;;;;;;;
2022/10/21 14:47:13;;;;;;;4.9;1.9;;;;;;;;;;;;;
2022/10/21 14:49:39;;;;;;;5.7;1.9;;;;;;;;;;;;;
2022/10/21 14:52:04;;;;;;;5;2.1;;;;;;;;;;;;;
2022/10/21 14:54:29;;;;;;;6.3;2.2;;;;;;;;;;;;;
2022/10/21 14:56:57;;;;;;;4;1.9;;;;;;;;;;;;;
2022/10/21 14:59:21;;;;;;;3.2;1.7;;;;;;;;;;;;;
2022/10/21 15:01:49;;;;;;;3.3;2;;;;;;;;;;;;;
2022/10/21 15:04:14;;;;;;;4.9;2.4;;;;;;;;;;;;;
2022/10/21 15:06:39;;;;;;;2.6;1.8;;;;;;;;;;;;;
2022/10/21 15:09:04;;;;;;;4.4;2.2;;;;;;;;;;;;;
2022/10/21 15:11:29;;;;;;;5.2;1.7;;;;;;;;;;;;;
2022/10/21 15:13:55;;;;;;;5.9;2.4;;;;;;;;;;;;;
2022/10/21 15:16:21;;;;;;;3;2;;;;;;;;;;;;;
2022/10/21 15:18:47;;;;;;;4;2.2;;;;;;;;;;;;;
2022/10/21 15:21:13;;;;;;;5.4;2.8;;;;;;;;;;;;;
2022/10/21 15:23:38;;;;;;;6;3.8;;;;;;;;;;;;;
2022/10/21 15:26:04;;;;;;;5.1;2.9;;;;;;;;;;;;;
2022/10/21 15:28:28;;;;;;;5.9;3.1;;;;;;;;;;;;;
2022/10/21 15:30:55;;;;;;;3.6;2.6;;;;;;;;;;;;;
2022/10/21 15:33:20;;;;;;;3.8;2.5;;;;;;;;;;;;;
2022/10/21 15:35:47;;;;;;;4;2.5;;;;;;;;;;;;;
2022/10/21 15:38:12;;;;;;;3.7;1.8;;;;;;;;;;;;;
2022/10/21 15:40:39;;;;;;;3.9;1.9;;;;;;;;;;;;;
2022/10/21 15:43:04;;;;;;;2.7;1.8;;;;;;;;;;;;;
2022/10/21 15:45:29;;;;;;;4.3;2.2;;;;;;;;;;;;;
2022/10/21 15:47:54;;;;;;;4.4;2.8;;;;;;;;;;;;;
2022/10/21 15:50:22;;;;;;;8.2;2.5;;;;;;;;;;;;;
2022/10/21 15:52:47;;;;;;;4.9;2.5;;;;;;;;;;;;;
2022/10/21 15:55:12;;;;;;;4.1;2.4;;;;;;;;;;;;;
2022/10/21 15:57:38;;;;;;;6.1;2.5;;;;;;;;;;;;;
2022/10/21 16:00:03;;;;;;;4.3;2.5;;;;;;;;;;;;;
2022/10/21 16:02:28;;;;;;;6.5;2.7;;;;;;;;;;;;;
2022/10/21 16:04:55;;;;;;;7.5;4;;;;;;;;;;;;;
2022/10/21 16:07:20;;;;;;;5.2;2.9;;;;;;;;;;;;;
2022/10/21 16:09:45;;;;;;;4.6;3.3;;;;;;;;;;;;;
2022/10/21 16:12:10;;;;;;;7.9;3.6;;;;;;;;;;;;;
2022/10/21 16:14:35;;;;;;;6.1;4.1;;;;;;;;;;;;;
2022/10/21 16:17:38;;;;;;;7.4;3.4;;;;;;;;;;;;;
2022/10/21 16:20:03;;;;;;;6.3;3.6;;;;;;;;;;;;;
2022/10/21 16:22:30;;;;;;;6.1;3.2;;;;;;;;;;;;;
2022/10/21 16:24:55;;;;;;;8.4;4.6;;;;;;;;;;;;;
2022/10/21 16:27:20;;;;;;;7.2;4.3;;;;;;;;;;;;;
2022/10/21 16:29:45;;;;;;;4.8;3;;;;;;;;;;;;;
2022/10/21 16:32:11;;;;;;;5.2;2.1;;;;;;;;;;;;;
2022/10/21 16:34:37;;;;;;;4.4;2.8;;;;;;;;;;;;;
2022/10/21 16:37:02;;;;;;;4.7;2.6;;;;;;;;;;;;;
2022/10/21 16:39:28;;;;;;;4.8;3.7;;;;;;;;;;;;;
2022/10/21 16:41:53;;;;;;;6.9;3.8;;;;;;;;;;;;;
2022/10/21 16:44:20;;;;;;;19.9;13.5;;;;;;;;;;;;;
2022/10/21 16:46:45;;;;;;;10.9;7.6;;;;;;;;;;;;;
2022/10/21 16:49:10;;;;;;;9.2;5.1;;;;;;;;;;;;;
2022/10/21 16:51:36;;;;;;;8.2;4.7;;;;;;;;;;;;;
2022/10/21 16:54:00;;;;;;;12.6;6.1;;;;;;;;;;;;;
2022/10/21 16:56:26;;;;;;;10.6;6.8;;;;;;;;;;;;;
2022/10/21 16:58:51;;;;;;;13.3;8.4;;;;;;;;;;;;;
2022/10/21 17:01:17;;;;;;;13.1;8.2;;;;;;;;;;;;;
2022/10/21 17:03:42;;;;;;;9.7;6.8;;;;;;;;;;;;;
2022/10/21 17:06:08;;;;;;;9.5;5.3;;;;;;;;;;;;;
2022/10/21 17:08:33;;;;;;;9.7;5;;;;;;;;;;;;;
2022/10/21 17:11:00;;;;;;;9.5;5.5;;;;;;;;;;;;;
2022/10/21 17:13:25;;;;;;;8.6;4.9;;;;;;;;;;;;;
2022/10/21 17:15:54;;;;;;;6.6;4;;;;;;;;;;;;;
2022/10/21 17:18:22;;;;;;;10.3;5;;;;;;;;;;;;;
2022/10/21 17:20:47;;;;;;;6.3;4.2;;;;;;;;;;;;;
2022/10/21 17:23:14;;;;;;;7.7;4;;;;;;;;;;;;;
2022/10/21 17:25:39;;;;;;;7.3;4.8;;;;;;;;;;;;;
2022/10/21 17:28:04;;;;;;;8.6;4.4;;;;;;;;;;;;;
2022/10/21 17:30:31;;;;;;;6;3.8;;;;;;;;;;;;;
2022/10/21 17:32:56;;;;;;;6.6;4.1;;;;;;;;;;;;;
2022/10/21 17:35:22;;;;;;;9.6;4.5;;;;;;;;;;;;;
2022/10/21 17:37:48;;;;;;;10.3;4.9;;;;;;;;;;;;;
2022/10/21 17:40:19;;;;;;;7.3;4.7;;;;;;;;;;;;;
2022/10/21 17:42:53;;;;;;;8.2;4.6;;;;;;;;;;;;;
2022/10/21 17:45:20;;;;;;;7.1;4.7;;;;;;;;;;;;;
2022/10/21 17:47:45;;;;;;;9.9;6.1;;;;;;;;;;;;;
2022/10/21 17:50:17;;;;;;;9.6;6;;;;;;;;;;;;;
2022/10/21 17:55:05;;;;;;;9.6;5.3;;;;;;;;;;;;;
2022/10/21 17:57:33;;;;;;;14.9;8.3;;;;;;;;;;;;;
2022/10/21 17:59:59;;;;;;;16.4;11.2;;;;;;;;;;;;;
2022/10/21 18:02:32;;;;;;;19.6;11.7;;;;;;;;;;;;;
2022/10/21 18:04:53;;;;;;;18.1;11.2;;;;;;;;;;;;;
2022/10/21 18:07:21;;;;;;;18.1;10.3;;;;;;;;;;;;;
2022/10/21 18:09:46;;;;;;;18.1;9.6;;;;;;;;;;;;;
2022/10/21 18:12:30;;;;;;;13.3;8.7;;;;;;;;;;;;;
2022/10/21 18:14:52;;;;;;;11.2;7.3;;;;;;;;;;;;;
2022/10/21 18:17:21;;;;;;;44.8;27.4;;;;;;;;;;;;;
2022/10/21 18:19:49;;;;;;;19.2;10.1;;;;;;;;;;;;;
2022/10/21 18:22:14;;;;;;;11;6.5;;;;;;;;;;;;;
2022/10/21 18:24:39;;;;;;;11.6;7.1;;;;;;;;;;;;;
2022/10/21 18:27:05;;;;;;;12.3;6.2;;;;;;;;;;;;;
2022/10/21 18:29:30;;;;;;;10.2;5.8;;;;;;;;;;;;;
2022/10/21 18:31:55;;;;;;;10.8;5.5;;;;;;;;;;;;;
2022/10/21 18:34:21;;;;;;;10.6;5.8;;;;;;;;;;;;;
2022/10/21 18:36:46;;;;;;;10.7;5.6;;;;;;;;;;;;;
2022/10/21 18:39:13;;;;;;;7.5;5.6;;;;;;;;;;;;;
2022/10/21 18:41:38;;;;;;;9.6;6;;;;;;;;;;;;;
2022/10/21 18:44:07;;;;;;;9.6;5.8;;;;;;;;;;;;;
2022/10/21 18:46:30;;;;;;;24.8;11.5;;;;;;;;;;;;;
2022/10/21 18:48:56;;;;;;;28;12;;;;;;;;;;;;;
2022/10/21 18:51:22;;;;;;;21.8;10.5;;;;;;;;;;;;;
2022/10/21 18:53:48;;;;;;;17;8;;;;;;;;;;;;;
2022/10/21 18:56:14;;;;;;;15.2;7.3;;;;;;;;;;;;;
2022/10/21 18:58:39;;;;;;;18.6;8.6;;;;;;;;;;;;;
2022/10/21 19:01:04;;;;;;;15.2;8;;;;;;;;;;;;;
2022/10/21 19:03:29;;;;;;;14.5;7;;;;;;;;;;;;;
2022/10/21 19:05:54;;;;;;;9.8;6;;;;;;;;;;;;;
2022/10/21 19:08:22;;;;;;;10.4;6;;;;;;;;;;;;;
2022/10/21 19:10:47;;;;;;;10.5;6.1;;;;;;;;;;;;;
2022/10/21 19:13:13;;;;;;;8.8;5.7;;;;;;;;;;;;;
2022/10/21 19:15:39;;;;;;;14;6;;;;;;;;;;;;;
2022/10/21 19:18:06;;;;;;;9.6;5.8;;;;;;;;;;;;;
2022/10/21 19:20:31;;;;;;;8.1;6.1;;;;;;;;;;;;;
2022/10/21 19:22:58;;;;;;;8.8;5.4;;;;;;;;;;;;;
2022/10/21 19:25:23;;;;;;;7.9;5.5;;;;;;;;;;;;;
2022/10/21 19:27:48;;;;;;;6.9;4.8;;;;;;;;;;;;;
2022/10/21 19:30:13;;;;;;;8.4;5.1;;;;;;;;;;;;;
2022/10/21 19:32:39;;;;;;;6.8;4.6;;;;;;;;;;;;;
2022/10/21 19:35:04;;;;;;;8.2;4.4;;;;;;;;;;;;;
2022/10/21 19:37:31;;;;;;;12.8;6.5;;;;;;;;;;;;;
2022/10/21 19:39:57;;;;;;;11.4;5.7;;;;;;;;;;;;;
2022/10/21 19:42:23;;;;;;;11.5;5.7;;;;;;;;;;;;;
2022/10/21 19:47:13;;;;;;;11.1;6.9;;;;;;;;;;;;;
2022/10/21 19:49:38;;;;;;;13.7;6.7;;;;;;;;;;;;;
2022/10/21 19:52:04;;;;;;;7.4;5.1;;;;;;;;;;;;;
2022/10/21 19:54:28;;;;;;;8.4;4.2;;;;;;;;;;;;;
2022/10/21 19:57:23;;;;;;;8.8;4.8;;;;;;;;;;;;;
2022/10/21 19:59:49;;;;;;;7.4;4.3;;;;;;;;;;;;;
2022/10/21 20:02:14;;;;;;;9.5;5;;;;;;;;;;;;;
2022/10/21 20:04:41;;;;;;;10.2;5.7;;;;;;;;;;;;;
2022/10/21 20:07:06;;;;;;;8.3;5.1;;;;;;;;;;;;;
2022/10/21 20:09:33;;;;;;;10.4;5.4;;;;;;;;;;;;;
2022/10/21 20:11:58;;;;;;;10.3;6.4;;;;;;;;;;;;;
2022/10/21 20:14:25;;;;;;;9.7;4.9;;;;;;;;;;;;;
2022/10/21 20:16:50;;;;;;;8.1;5.5;;;;;;;;;;;;;
2022/10/21 20:19:15;;;;;;;6.7;4.1;;;;;;;;;;;;;
2022/10/21 20:21:40;;;;;;;5.9;3.6;;;;;;;;;;;;;
2022/10/21 20:24:06;;;;;;;5.2;3.9;;;;;;;;;;;;;